CDT,Max TemperatureF,Mean TemperatureF,Min TemperatureF,Max Dew PointF,MeanDew PointF,Min DewpointF,Max Humidity, Mean Humidity, Min Humidity, Max Sea Level PressureIn, Mean Sea Level PressureIn, Min Sea Level PressureIn, Max VisibilityMiles, Mean VisibilityMiles, Min VisibilityMiles, Max Wind SpeedMPH, Mean Wind SpeedMPH, Max Gust SpeedMPH,PrecipitationIn, CloudCover, Events, WindDirDegrees
2011-10-1,64,46,28,34,30,25,93,58,22,30.38,30.30,30.22,10,10,10,10,4,,0.00,0,,134
2011-10-2,78,60,42,39,34,30,76,49,17,30.25,30.19,30.13,10,10,10,12,5,,0.00,0,,177
2011-10-3,80,60,39,41,36,30,87,47,16,30.22,30.19,30.15,10,10,10,13,3,16,0.00,0,,160
2011-10-4,82,60,39,37,34,30,87,39,17,30.20,30.14,30.06,10,10,10,17,6,23,0.00,0,,149
2011-10-5,86,73,60,43,39,36,48,32,18,30.12,30.08,30.04,10,10,10,15,9,21,0.00,0,,159
2011-10-6,80,66,53,43,40,32,63,40,17,30.11,30.07,30.01,10,10,10,21,9,28,0.00,0,,146
2011-10-7,82,73,64,55,50,45,56,44,36,30.02,29.96,29.89,10,10,10,26,17,36,0.00,3,,159
2011-10-8,84,74,64,57,51,46,60,46,34,30.13,30.05,29.97,10,10,10,17,11,25,0.00,4,,174
2011-10-9,80,70,60,52,48,45,59,45,28,30.24,30.17,30.13,10,10,10,14,7,21,0.00,1,,155
2011-10-10,73,64,55,55,48,43,88,62,33,30.13,30.02,29.94,10,10,7,17,8,26,0.04,2,Rain,148
2011-10-11,73,62,51,54,50,43,94,69,33,29.94,29.89,29.82,10,9,5,13,6,20,0.00,1,Rain,166
2011-10-12,62,58,55,55,53,48,94,83,59,29.80,29.74,29.68,10,9,4,13,5,22,0.16,5,Rain-Thunderstorm,150
2011-10-13,60,54,48,54,47,37,94,77,48,29.68,29.66,29.63,10,8,1,17,7,24,0.00,4,,283
2011-10-14,55,50,46,43,39,34,87,67,44,29.79,29.71,29.65,10,10,7,25,13,32,0.00,5,,283
2011-10-15,59,49,39,39,35,28,87,60,31,29.92,29.87,29.83,10,10,10,18,11,26,0.00,2,Rain,263
2011-10-16,57,50,42,39,33,27,81,57,31,29.90,29.87,29.83,10,10,10,25,8,33,0.00,2,,266
2011-10-17,57,47,37,30,27,21,75,50,26,29.91,29.88,29.85,10,10,5,23,12,30,0.00,0,,270
2011-10-18,44,40,37,32,29,27,75,61,53,30.04,29.97,29.87,10,10,10,16,9,21,0.00,6,,309
2011-10-19,46,42,37,32,29,27,75,63,50,30.09,30.05,30.02,10,10,10,14,8,20,0.00,7,,345
2011-10-20,53,42,30,32,27,21,100,63,28,30.00,29.96,29.92,10,10,10,16,8,23,0.00,0,,320
2011-10-21,60,42,24,34,27,21,93,60,29,30.06,30.01,29.97,10,10,10,12,3,,0.00,0,,203
2011-10-22,59,48,37,37,32,25,87,59,29,30.13,30.07,30.01,10,10,4,9,4,,0.00,0,,320
2011-10-23,62,50,37,45,38,28,93,67,42,29.96,29.88,29.79,10,10,2,13,5,18,0.02,3,Rain,212
2011-10-24,62,46,30,41,36,30,100,73,42,30.05,29.99,29.95,10,7,0,9,2,,0.00,2,Fog,203
2011-10-25,53,46,39,39,38,34,87,68,54,30.00,29.86,29.79,10,10,10,20,9,29,0.00,3,,32
2011-10-26,48,42,37,36,34,34,87,75,58,30.11,30.06,30.01,10,10,10,12,5,17,0.00,5,,329
2011-10-27,51,42,33,34,30,23,93,69,35,30.09,30.05,30.03,10,8,4,10,3,,0.00,4,Rain,256
2011-10-28,53,40,28,28,22,18,80,50,24,30.09,30.04,30.01,10,10,7,17,6,23,0.00,2,,231
2011-10-29,51,37,23,27,20,16,86,52,24,30.07,30.02,29.94,10,10,3,9,3,,0.00,0,,169
2011-10-30,48,44,39,36,29,19,87,57,32,29.94,29.84,29.78,10,10,7,20,10,25,0.00,6,Rain,236
2011-10-31,51,40,28,36,30,27,93,69,38,30.03,29.98,29.94,10,10,5,12,6,,0.00,2,,222